createdAt,value
2018-07-14T18:36:23.695Z,32.75
2018-07-14T18:38:50.877Z,32.10
2018-07-14T18:41:17.602Z,32.40
2018-07-14T18:43:48.122Z,32.83
2018-07-14T18:46:15.723Z,33.16
2018-07-14T18:51:28.520Z,33.14
2018-07-14T18:56:05.073Z,33.46
2018-07-14T18:58:37.713Z,34.43
2018-07-14T19:01:04.565Z,34.50
2018-07-14T19:03:36.583Z,35.74
2018-07-14T19:06:04.661Z,35.36
2018-07-14T19:08:32.308Z,35.73
2018-07-14T19:11:00.593Z,36.85
2018-07-14T19:15:55.556Z,37.33
2018-07-14T19:20:19.568Z,38.96
2018-07-14T19:22:46.283Z,39.29
2018-07-14T19:25:13.981Z,40.30
2018-07-14T19:27:41.954Z,40.39
2018-07-14T19:30:08.492Z,42.36
2018-07-14T19:32:36.062Z,43.78
2018-07-14T19:35:03.766Z,44.92
2018-07-14T19:37:30.240Z,46.33
2018-07-14T19:39:56.826Z,46.87
2018-07-14T19:42:24.348Z,47.86
2018-07-14T19:44:51.265Z,48.92
2018-07-14T19:47:17.921Z,49.36
2018-07-14T19:49:45.696Z,49.43
2018-07-14T19:52:12.214Z,50.35
2018-07-14T19:54:38.689Z,50.54
2018-07-14T19:57:06.598Z,50.80
2018-07-14T19:59:35.081Z,51.20
2018-07-14T20:02:01.678Z,51.71
2018-07-14T20:04:29.200Z,51.66
2018-07-14T20:06:55.774Z,52.40
2018-07-14T20:09:22.261Z,52.31
2018-07-14T20:11:49.286Z,52.34
2018-07-14T20:14:15.782Z,52.67
2018-07-14T20:16:42.311Z,52.79
2018-07-14T20:19:08.889Z,53.80
2018-07-14T20:21:35.341Z,53.65
2018-07-14T20:24:02.253Z,53.58
2018-07-14T20:26:28.746Z,54.21
2018-07-14T20:28:59.487Z,53.79
2018-07-14T20:31:26.482Z,54.18
2018-07-14T20:33:52.973Z,54.94
2018-07-14T20:36:19.617Z,55.00
2018-07-14T20:38:47.162Z,55.09
2018-07-14T20:41:13.815Z,55.39
2018-07-14T20:43:41.022Z,55.71
2018-07-14T20:46:08.156Z,56.14
2018-07-14T20:48:35.830Z,56.60
2018-07-14T20:51:02.468Z,57.33
2018-07-14T20:53:30.548Z,57.62
2018-07-14T20:55:58.642Z,58.09
2018-07-14T20:58:26.269Z,58.73
2018-07-14T21:00:55.170Z,58.54
2018-07-14T21:03:22.308Z,59.68
2018-07-14T21:05:48.832Z,59.91
2018-07-14T21:08:16.533Z,59.95
2018-07-14T21:10:43.554Z,60.65
2018-07-14T21:13:10.054Z,60.56
2018-07-14T21:15:38.657Z,61.27
2018-07-14T21:18:05.181Z,61.59
2018-07-14T21:20:31.657Z,61.47
2018-07-14T21:22:58.537Z,61.96
2018-07-14T21:25:25.681Z,61.16
2018-07-14T21:27:52.589Z,61.74
2018-07-14T21:30:19.517Z,61.79
2018-07-14T21:32:46.156Z,61.73
2018-07-14T21:35:13.512Z,62.00
2018-07-14T21:37:40.467Z,62.32
2018-07-14T21:40:07.158Z,62.23
2018-07-14T21:42:35.369Z,62.25
2018-07-14T21:45:03.757Z,62.72
2018-07-14T21:47:31.717Z,62.80
2018-07-14T21:49:58.376Z,62.64
2018-07-14T21:52:25.170Z,63.33
2018-07-14T21:54:51.614Z,63.44
2018-07-14T21:57:18.100Z,64.11
2018-07-14T21:59:44.853Z,65.17
2018-07-14T22:02:12.680Z,65.38
2018-07-14T22:04:40.909Z,65.00
2018-07-14T22:07:07.859Z,65.97
2018-07-14T22:09:34.301Z,66.44
2018-07-14T22:12:01.794Z,66.42
2018-07-14T22:14:28.698Z,66.97
2018-07-14T22:16:55.457Z,67.28
2018-07-14T22:19:21.982Z,67.04
2018-07-14T22:21:49.925Z,67.16
2018-07-14T22:24:16.417Z,67.90
2018-07-14T22:26:43.797Z,68.30
2018-07-14T22:29:11.259Z,67.80
2018-07-14T22:31:37.748Z,67.98
2018-07-14T22:34:05.060Z,69.05
2018-07-14T22:36:32.733Z,69.12
2018-07-14T22:38:59.235Z,69.71
2018-07-14T22:41:26.348Z,69.90
2018-07-14T22:43:53.334Z,69.76
2018-07-14T22:46:20.232Z,70.46
2018-07-14T22:48:46.757Z,70.43
2018-07-14T22:51:14.508Z,70.87
2018-07-14T22:53:41.572Z,71.08
2018-07-14T22:56:09.565Z,71.50
2018-07-14T22:58:36.440Z,71.65
2018-07-14T23:01:02.937Z,71.80
2018-07-14T23:03:29.430Z,72.53
2018-07-14T23:05:56.350Z,72.35
2018-07-14T23:08:22.851Z,72.45
2018-07-14T23:10:49.311Z,72.83
2018-07-14T23:13:16.261Z,73.07
2018-07-14T23:15:42.717Z,73.44
2018-07-14T23:18:09.224Z,73.57
2018-07-14T23:20:37.686Z,73.64
2018-07-14T23:23:04.164Z,73.93
2018-07-14T23:25:30.658Z,74.19
2018-07-14T23:27:59.129Z,74.61
2018-07-14T23:30:25.610Z,74.44
2018-07-14T23:32:52.106Z,74.69
2018-07-14T23:35:19.003Z,74.72
2018-07-14T23:37:45.525Z,74.79
2018-07-14T23:40:12.026Z,74.85
2018-07-14T23:42:39.011Z,75.01
2018-07-14T23:45:06.113Z,75.09
2018-07-14T23:47:32.613Z,75.52
2018-07-14T23:49:59.469Z,75.74
2018-07-14T23:52:25.965Z,75.38
2018-07-14T23:54:52.421Z,75.73
2018-07-14T23:57:19.335Z,75.99
2018-07-14T23:59:45.795Z,75.67
